Time;durP1;ratioP1;P1;durP2;ratioP2;P2;SDS_P1;SDS_P2;PMS_P1;PMS_P2;Temp;Humidity;BMP_temperature;BMP_pressure;BME280_temperature;BME280_humidity;BME280_pressure;Samples;Min_cycle;Max_cycle;Signal;HPM_P1;HPM_P2
2024/01/11 00:00:33;;;;;;;19.07;12.60;;;;;;;;;;5054099;28;20021;-56
2024/01/11 00:02:59;;;;;;;14.93;11.37;;;;;;;;;;5052696;28;20025;-55
2024/01/11 00:05:25;;;;;;;17.17;11.90;;;;;;;;;;5053722;28;20029;-57
2024/01/11 00:07:51;;;;;;;14.87;11.37;;;;;;;;;;5053805;28;20045;-58
2024/01/11 00:10:17;;;;;;;17.93;12.53;;;;;;;;;;5054145;28;20100;-55
2024/01/11 00:12:43;;;;;;;16.07;12.00;;;;;;;;;;5053927;28;20017;-58
2024/01/11 00:15:09;;;;;;;16.90;11.87;;;;;;;;;;5053678;28;20081;-56
2024/01/11 00:17:36;;;;;;;20.27;12.17;;;;;;;;;;5053310;28;20059;-58
2024/01/11 00:20:02;;;;;;;16.50;11.80;;;;;;;;;;5053555;28;20183;-55
2024/01/11 00:22:28;;;;;;;18.63;11.77;;;;;;;;;;5053838;28;20378;-55
2024/01/11 00:24:54;;;;;;;18.83;11.73;;;;;;;;;;5053543;28;20087;-56
2024/01/11 00:27:20;;;;;;;16.00;11.30;;;;;;;;;;5052103;28;20025;-56
2024/01/11 00:29:46;;;;;;;17.40;11.33;;;;;;;;;;5053040;28;20040;-55
2024/01/11 00:32:12;;;;;;;17.30;11.83;;;;;;;;;;5053499;28;20056;-56
2024/01/11 00:34:38;;;;;;;15.93;11.50;;;;;;;;;;5053310;28;20363;-55
2024/01/11 00:37:04;;;;;;;16.90;11.77;;;;;;;;;;5053549;28;20098;-55
2024/01/11 00:39:30;;;;;;;18.20;10.53;;;;;;;;;;5052902;28;20052;-55
2024/01/11 00:41:56;;;;;;;13.77;9.80;;;;;;;;;;5053339;28;20032;-57
2024/01/11 00:44:23;;;;;;;14.60;9.40;;;;;;;;;;5053410;28;20374;-56
2024/01/11 00:46:49;;;;;;;11.83;9.47;;;;;;;;;;5045472;28;20075;-56
2024/01/11 00:49:15;;;;;;;15.30;9.83;;;;;;;;;;5037593;28;20092;-56
2024/01/11 00:51:41;;;;;;;12.60;8.93;;;;;;;;;;5053145;28;20053;-56
2024/01/11 00:54:07;;;;;;;12.10;8.57;;;;;;;;;;5051606;28;20029;-55
2024/01/11 00:56:33;;;;;;;12.77;9.30;;;;;;;;;;5052777;28;20021;-52
2024/01/11 00:58:59;;;;;;;12.80;9.30;;;;;;;;;;5052498;28;20111;-55
2024/01/11 01:01:25;;;;;;;15.33;10.03;;;;;;;;;;5053038;28;20033;-56
2024/01/11 01:03:51;;;;;;;13.57;9.07;;;;;;;;;;5052877;28;20169;-57
2024/01/11 01:06:17;;;;;;;14.47;9.67;;;;;;;;;;5052651;28;20125;-57
2024/01/11 01:08:43;;;;;;;13.33;9.40;;;;;;;;;;5053057;28;20044;-56
2024/01/11 01:11:09;;;;;;;13.20;9.27;;;;;;;;;;5051167;28;20029;-56
2024/01/11 01:13:35;;;;;;;11.90;8.77;;;;;;;;;;5052689;28;20056;-57
2024/01/11 01:16:01;;;;;;;11.60;8.50;;;;;;;;;;5052189;28;20066;-57
2024/01/11 01:18:27;;;;;;;12.33;8.80;;;;;;;;;;5052439;28;20053;-56
2024/01/11 01:20:53;;;;;;;11.97;9.03;;;;;;;;;;5052379;28;20037;-57
2024/01/11 01:23:19;;;;;;;14.27;9.63;;;;;;;;;;5051183;28;20112;-54
2024/01/11 01:25:45;;;;;;;14.57;9.70;;;;;;;;;;5052314;28;20025;-56
2024/01/11 01:28:11;;;;;;;12.70;9.13;;;;;;;;;;5052063;28;20087;-56
2024/01/11 01:30:37;;;;;;;13.30;9.07;;;;;;;;;;5052272;28;20063;-56
2024/01/11 01:33:03;;;;;;;13.23;9.33;;;;;;;;;;5050980;28;20013;-54
2024/01/11 01:35:29;;;;;;;14.20;9.63;;;;;;;;;;5052481;28;20044;-56
2024/01/11 01:37:55;;;;;;;20.27;9.73;;;;;;;;;;5052142;28;20045;-52
2024/01/11 01:40:22;;;;;;;12.13;9.00;;;;;;;;;;5050643;28;20028;-56
2024/01/11 01:42:49;;;;;;;15.37;9.67;;;;;;;;;;5052135;28;20029;-56
2024/01/11 01:45:16;;;;;;;19.20;9.77;;;;;;;;;;5052085;28;20078;-53
2024/01/11 01:47:43;;;;;;;14.10;10.57;;;;;;;;;;5051279;28;20033;-57
2024/01/11 01:50:10;;;;;;;14.50;9.33;;;;;;;;;;5050548;28;20017;-56
2024/01/11 01:52:37;;;;;;;13.33;8.97;;;;;;;;;;5052002;28;20037;-55
2024/01/11 01:55:04;;;;;;;14.60;9.77;;;;;;;;;;5051482;28;20352;-55
2024/01/11 01:57:31;;;;;;;12.70;9.40;;;;;;;;;;5051989;28;20120;-54
2024/01/11 01:59:57;;;;;;;15.17;9.90;;;;;;;;;;5052207;28;20025;-55
2024/01/11 02:02:23;;;;;;;15.10;10.17;;;;;;;;;;5051997;28;20490;-55
2024/01/11 02:04:49;;;;;;;15.37;10.43;;;;;;;;;;5051759;28;20418;-55
2024/01/11 02:07:16;;;;;;;15.17;10.73;;;;;;;;;;5051750;28;20470;-54
2024/01/11 02:09:43;;;;;;;16.70;11.27;;;;;;;;;;5051810;28;20035;-55
2024/01/11 02:12:10;;;;;;;19.03;11.23;;;;;;;;;;5051974;28;20024;-54
2024/01/11 02:14:38;;;;;;;17.23;11.77;;;;;;;;;;5050279;28;20029;-55
2024/01/11 02:17:04;;;;;;;21.67;12.73;;;;;;;;;;5051395;28;20051;-55
2024/01/11 02:19:30;;;;;;;16.40;12.40;;;;;;;;;;5051796;28;20021;-54
2024/01/11 02:22:01;;;;;;;17.23;12.17;;;;;;;;;;5051766;28;20082;-51
2024/01/11 02:24:27;;;;;;;22.53;13.57;;;;;;;;;;5051422;28;20025;-56
2024/01/11 02:26:59;;;;;;;18.90;12.70;;;;;;;;;;5051611;28;20123;-57
2024/01/11 02:29:26;;;;;;;18.77;13.53;;;;;;;;;;5051210;28;20029;-57
2024/01/11 02:31:52;;;;;;;19.63;13.30;;;;;;;;;;5050466;28;20032;-56
2024/01/11 02:34:19;;;;;;;19.27;13.47;;;;;;;;;;5048488;28;20497;-53
2024/01/11 02:36:45;;;;;;;17.67;13.50;;;;;;;;;;5047883;28;20033;-56
2024/01/11 02:39:11;;;;;;;17.50;12.90;;;;;;;;;;5048218;28;20071;-57
2024/01/11 02:41:38;;;;;;;19.17;13.60;;;;;;;;;;5048481;28;20079;-56
2024/01/11 02:44:04;;;;;;;19.27;13.80;;;;;;;;;;5039612;28;20021;-56
2024/01/11 02:46:30;;;;;;;19.83;13.47;;;;;;;;;;5049279;28;20017;-56
2024/01/11 02:48:56;;;;;;;21.90;13.00;;;;;;;;;;5048659;28;20021;-56
2024/01/11 02:51:22;;;;;;;19.97;13.57;;;;;;;;;;5049660;28;20328;-57
2024/01/11 02:53:48;;;;;;;20.40;12.70;;;;;;;;;;5046242;28;20025;-56
2024/01/11 02:56:14;;;;;;;23.63;13.27;;;;;;;;;;5047559;28;20481;-57
2024/01/11 02:58:40;;;;;;;19.57;13.33;;;;;;;;;;5048049;28;20020;-56
2024/01/11 03:01:06;;;;;;;20.17;13.80;;;;;;;;;;5047211;28;20025;-56
2024/01/11 03:03:32;;;;;;;22.27;13.83;;;;;;;;;;5053733;28;20021;-57
2024/01/11 03:05:58;;;;;;;20.20;13.67;;;;;;;;;;5053499;28;20082;-56
2024/01/11 03:08:24;;;;;;;18.67;13.10;;;;;;;;;;5050111;28;20027;-53
2024/01/11 03:10:50;;;;;;;19.67;13.63;;;;;;;;;;5055065;28;20021;-56
2024/01/11 03:13:16;;;;;;;18.93;13.07;;;;;;;;;;5054790;28;20036;-56
2024/01/11 03:15:43;;;;;;;18.20;13.23;;;;;;;;;;5053340;28;20455;-54
2024/01/11 03:18:09;;;;;;;19.60;14.17;;;;;;;;;;5054651;28;20537;-56
2024/01/11 03:20:35;;;;;;;18.03;12.87;;;;;;;;;;5053402;28;20449;-54
2024/01/11 03:23:01;;;;;;;18.97;14.50;;;;;;;;;;5054325;28;20104;-57
2024/01/11 03:25:27;;;;;;;19.03;13.53;;;;;;;;;;5054624;28;20032;-56
2024/01/11 03:27:53;;;;;;;22.20;14.23;;;;;;;;;;5053337;28;20483;-56
2024/01/11 03:30:19;;;;;;;21.63;14.03;;;;;;;;;;5054745;28;20061;-55
2024/01/11 03:32:45;;;;;;;18.63;13.03;;;;;;;;;;5054538;28;20032;-55
2024/01/11 03:35:11;;;;;;;17.13;12.40;;;;;;;;;;5054286;28;20021;-55
2024/01/11 03:37:37;;;;;;;18.43;12.07;;;;;;;;;;5054542;28;20074;-56
2024/01/11 03:40:03;;;;;;;17.77;12.30;;;;;;;;;;5054522;28;20383;-57
2024/01/11 03:42:29;;;;;;;17.23;12.80;;;;;;;;;;5054234;28;20029;-56
2024/01/11 03:44:55;;;;;;;18.63;12.37;;;;;;;;;;5052905;28;20025;-54
2024/01/11 03:47:21;;;;;;;20.00;13.47;;;;;;;;;;5054054;28;20032;-56
2024/01/11 03:49:48;;;;;;;19.50;13.17;;;;;;;;;;5040413;28;20030;-55
2024/01/11 03:52:13;;;;;;;20.50;13.50;;;;;;;;;;5053983;28;20036;-56
2024/01/11 03:54:39;;;;;;;19.50;13.37;;;;;;;;;;5054135;28;20036;-56
2024/01/11 03:57:06;;;;;;;19.70;12.33;;;;;;;;;;5054035;28;20087;-55
2024/01/11 03:59:32;;;;;;;20.63;12.87;;;;;;;;;;5054314;28;20025;-56
2024/01/11 04:01:58;;;;;;;19.07;13.17;;;;;;;;;;5053998;28;20464;-56
2024/01/11 04:04:24;;;;;;;20.07;14.00;;;;;;;;;;5053951;28;20132;-56
2024/01/11 04:06:52;;;;;;;20.67;12.93;;;;;;;;;;5052572;28;20490;-55
2024/01/11 04:09:18;;;;;;;16.90;12.37;;;;;;;;;;5053533;28;20032;-55
2024/01/11 04:11:44;;;;;;;21.43;14.13;;;;;;;;;;5054005;28;20099;-56
2024/01/11 04:14:10;;;;;;;19.87;14.30;;;;;;;;;;5053444;28;20029;-55
2024/01/11 04:16:41;;;;;;;21.23;14.27;;;;;;;;;;5053531;28;20399;-56
2024/01/11 04:19:07;;;;;;;19.40;13.90;;;;;;;;;;5053483;28;20039;-56
2024/01/11 04:21:33;;;;;;;21.00;13.83;;;;;;;;;;5054061;28;20382;-57
2024/01/11 04:23:59;;;;;;;21.17;13.77;;;;;;;;;;5052149;28;20179;-56
2024/01/11 04:26:25;;;;;;;20.57;14.13;;;;;;;;;;5053583;28;20021;-55
2024/01/11 04:28:52;;;;;;;19.27;14.30;;;;;;;;;;5053437;28;20031;-56
2024/01/11 04:31:18;;;;;;;21.43;14.93;;;;;;;;;;5053154;28;20533;-56
2024/01/11 04:33:44;;;;;;;20.10;13.67;;;;;;;;;;5053442;28;20028;-53
2024/01/11 04:36:10;;;;;;;19.33;14.13;;;;;;;;;;5053075;28;20142;-53
2024/01/11 04:38:39;;;;;;;21.07;14.57;;;;;;;;;;5053319;28;20021;-54
2024/01/11 04:41:09;;;;;;;20.90;14.53;;;;;;;;;;5051753;28;20064;-57
2024/01/11 04:43:45;;;;;;;18.83;13.27;;;;;;;;;;5053489;28;20029;-56
2024/01/11 04:46:17;;;;;;;18.53;14.00;;;;;;;;;;5051706;28;20112;-57
2024/01/11 04:48:44;;;;;;;20.10;14.23;;;;;;;;;;5053476;28;20320;-58
2024/01/11 04:51:10;;;;;;;20.60;14.47;;;;;;;;;;5051252;28;20097;-57
2024/01/11 04:53:38;;;;;;;21.50;14.40;;;;;;;;;;5052669;28;20033;-57
2024/01/11 04:56:04;;;;;;;24.20;14.80;;;;;;;;;;5052998;28;20021;-56
2024/01/11 04:58:30;;;;;;;19.53;14.30;;;;;;;;;;5052574;28;20044;-53
2024/01/11 05:00:56;;;;;;;23.67;14.43;;;;;;;;;;5051534;28;20390;-56
2024/01/11 05:03:22;;;;;;;19.80;14.30;;;;;;;;;;5053075;28;20028;-54
2024/01/11 05:05:48;;;;;;;24.90;15.63;;;;;;;;;;5052832;28;20471;-56
2024/01/11 05:08:14;;;;;;;24.03;14.63;;;;;;;;;;5052045;28;20124;-56
2024/01/11 05:10:40;;;;;;;18.10;14.03;;;;;;;;;;5064509;28;20116;-57
2024/01/11 05:13:06;;;;;;;21.10;14.23;;;;;;;;;;5052764;28;20037;-54
2024/01/11 05:15:32;;;;;;;19.50;14.57;;;;;;;;;;5052660;28;20503;-53
2024/01/11 05:17:59;;;;;;;22.90;15.03;;;;;;;;;;5052132;28;20162;-55
2024/01/11 05:20:24;;;;;;;20.57;14.63;;;;;;;;;;5052443;28;20494;-56
2024/01/11 05:22:50;;;;;;;20.93;15.10;;;;;;;;;;5050425;28;20028;-51
2024/01/11 05:25:16;;;;;;;20.43;14.23;;;;;;;;;;5050958;28;20025;-55
2024/01/11 05:27:42;;;;;;;23.57;14.83;;;;;;;;;;5052116;28;20043;-56
2024/01/11 05:30:09;;;;;;;20.30;14.37;;;;;;;;;;5052623;28;20419;-57
2024/01/11 05:32:35;;;;;;;25.43;15.50;;;;;;;;;;5052059;28;20033;-55
2024/01/11 05:35:01;;;;;;;19.87;13.80;;;;;;;;;;5050721;28;20429;-54
2024/01/11 05:37:27;;;;;;;21.33;14.73;;;;;;;;;;5050729;28;20045;-57
2024/01/11 05:39:54;;;;;;;21.57;14.43;;;;;;;;;;5050778;28;20025;-57
2024/01/11 05:42:20;;;;;;;25.70;15.03;;;;;;;;;;5051766;28;20043;-54
2024/01/11 05:44:46;;;;;;;22.70;15.20;;;;;;;;;;5052026;28;20036;-57
2024/01/11 05:47:12;;;;;;;21.83;14.70;;;;;;;;;;5052218;28;20104;-57
2024/01/11 05:49:38;;;;;;;21.70;15.27;;;;;;;;;;5052113;28;20155;-56
2024/01/11 05:52:04;;;;;;;23.17;15.30;;;;;;;;;;5051709;28;20033;-53
2024/01/11 05:54:30;;;;;;;23.20;14.80;;;;;;;;;;5050542;28;20551;-55
2024/01/11 05:56:58;;;;;;;21.87;15.93;;;;;;;;;;5051815;28;20073;-56
2024/01/11 05:59:25;;;;;;;25.33;16.70;;;;;;;;;;5051983;28;20032;-55
2024/01/11 06:01:51;;;;;;;22.23;15.63;;;;;;;;;;5051703;28;20039;-56
2024/01/11 06:04:17;;;;;;;21.93;15.57;;;;;;;;;;5050389;28;20402;-53
2024/01/11 06:06:43;;;;;;;24.40;16.10;;;;;;;;;;5051788;28;20100;-55
2024/01/11 06:09:10;;;;;;;24.30;17.27;;;;;;;;;;5050282;28;20020;-54
2024/01/11 06:11:36;;;;;;;25.93;17.57;;;;;;;;;;5051772;28;20044;-56
2024/01/11 06:14:02;;;;;;;21.53;15.33;;;;;;;;;;5051573;28;20021;-58
2024/01/11 06:16:29;;;;;;;24.27;16.40;;;;;;;;;;5049938;28;20041;-57
2024/01/11 06:18:55;;;;;;;24.23;15.63;;;;;;;;;;5051676;28;20043;-57
2024/01/11 06:21:21;;;;;;;24.33;16.23;;;;;;;;;;5050023;28;20046;-54
2024/01/11 06:23:47;;;;;;;23.47;15.80;;;;;;;;;;5051634;28;20025;-54
2024/01/11 06:26:13;;;;;;;21.87;15.00;;;;;;;;;;5051564;28;20017;-56
2024/01/11 06:28:43;;;;;;;21.80;15.37;;;;;;;;;;5039663;28;20357;-57
2024/01/11 06:31:10;;;;;;;20.97;15.70;;;;;;;;;;5048536;28;20021;-57
2024/01/11 06:33:36;;;;;;;22.60;16.43;;;;;;;;;;5052685;28;20048;-55
2024/01/11 06:36:03;;;;;;;24.30;16.07;;;;;;;;;;5055681;28;20105;-54
2024/01/11 06:38:29;;;;;;;22.83;16.00;;;;;;;;;;5055511;28;20033;-56
2024/01/11 06:40:55;;;;;;;22.20;15.97;;;;;;;;;;5055703;28;20029;-53
2024/01/11 06:43:31;;;;;;;25.40;16.33;;;;;;;;;;5055177;28;20025;-54
2024/01/11 06:45:57;;;;;;;24.53;16.57;;;;;;;;;;5047425;28;20039;-55
2024/01/11 06:48:24;;;;;;;25.90;16.97;;;;;;;;;;5053862;28;20025;-56
2024/01/11 06:50:50;;;;;;;21.90;16.27;;;;;;;;;;5055583;28;20098;-57
2024/01/11 06:53:16;;;;;;;23.67;16.30;;;;;;;;;;5055291;28;20025;-56
2024/01/11 06:55:43;;;;;;;22.20;15.63;;;;;;;;;;5055307;28;20048;-55
2024/01/11 06:58:09;;;;;;;23.27;16.20;;;;;;;;;;5052256;28;20029;-56
2024/01/11 07:00:54;;;;;;;24.80;17.20;;;;;;;;;;5043053;28;20086;-57
2024/01/11 07:03:20;;;;;;;26.75;16.33;;;;;;;;;;5054951;28;20376;-56
2024/01/11 07:05:45;;;;;;;23.03;16.80;;;;;;;;;;5055037;28;20095;-57
2024/01/11 07:08:11;;;;;;;22.40;17.47;;;;;;;;;;5054764;28;20033;-56
2024/01/11 07:10:37;;;;;;;25.60;16.20;;;;;;;;;;5054748;28;20108;-57
2024/01/11 07:13:04;;;;;;;23.50;16.97;;;;;;;;;;5050793;28;20057;-51
2024/01/11 07:15:29;;;;;;;24.37;16.60;;;;;;;;;;5054593;28;20033;-54
2024/01/11 07:20:59;;;;;;;26.43;17.87;;;;;;;;;;5045451;28;20031;-56
2024/01/11 07:23:26;;;;;;;24.30;17.13;;;;;;;;;;5054729;28;20371;-59
2024/01/11 07:25:52;;;;;;;24.20;18.50;;;;;;;;;;5054769;28;20029;-57
2024/01/11 07:28:19;;;;;;;28.23;16.87;;;;;;;;;;5053982;28;20017;-55
2024/01/11 07:30:46;;;;;;;26.87;18.67;;;;;;;;;;5052819;28;20554;-56
2024/01/11 07:33:12;;;;;;;26.43;17.17;;;;;;;;;;5056377;28;20066;-56
2024/01/11 07:35:38;;;;;;;24.37;16.20;;;;;;;;;;5050832;28;20159;-54
2024/01/11 07:38:04;;;;;;;23.83;16.80;;;;;;;;;;5048880;28;20398;-56
2024/01/11 07:40:30;;;;;;;22.10;16.87;;;;;;;;;;5047208;28;20485;-55
2024/01/11 07:42:57;;;;;;;25.83;18.67;;;;;;;;;;5053555;28;20033;-56
2024/01/11 07:45:23;;;;;;;22.63;16.63;;;;;;;;;;5051240;28;20103;-52
2024/01/11 07:47:49;;;;;;;26.80;17.63;;;;;;;;;;5047784;28;20058;-56
2024/01/11 07:50:15;;;;;;;24.80;17.67;;;;;;;;;;5054044;28;20083;-57
2024/01/11 07:52:41;;;;;;;25.80;18.10;;;;;;;;;;5054100;28;20171;-56
2024/01/11 07:55:07;;;;;;;24.23;16.90;;;;;;;;;;5054165;28;20021;-58
2024/01/11 07:57:36;;;;;;;25.57;17.07;;;;;;;;;;5052168;28;20036;-56
2024/01/11 08:00:03;;;;;;;23.03;16.40;;;;;;;;;;5040115;28;20048;-58
2024/01/11 08:02:29;;;;;;;26.10;17.97;;;;;;;;;;5037809;28;20112;-57
2024/01/11 08:04:55;;;;;;;26.00;18.47;;;;;;;;;;5045791;28;20037;-57
2024/01/11 08:07:22;;;;;;;30.13;17.23;;;;;;;;;;5053928;28;20029;-56
2024/01/11 08:09:48;;;;;;;25.40;18.23;;;;;;;;;;5053668;28;20442;-57
2024/01/11 08:12:14;;;;;;;28.73;18.67;;;;;;;;;;5050093;28;20079;-56
2024/01/11 08:14:45;;;;;;;26.17;17.90;;;;;;;;;;5053568;28;20025;-56
2024/01/11 08:17:11;;;;;;;26.60;18.77;;;;;;;;;;5053654;28;20386;-55
2024/01/11 08:19:38;;;;;;;28.50;17.93;;;;;;;;;;5054029;28;20021;-57
2024/01/11 08:22:05;;;;;;;28.03;18.43;;;;;;;;;;5053960;28;20029;-57
2024/01/11 08:24:31;;;;;;;25.30;17.90;;;;;;;;;;5053739;28;20029;-56
2024/01/11 08:26:57;;;;;;;26.63;19.27;;;;;;;;;;5053571;28;20131;-57
2024/01/11 08:29:23;;;;;;;26.50;18.63;;;;;;;;;;5052371;28;20075;-57
2024/01/11 08:31:49;;;;;;;29.43;18.93;;;;;;;;;;5053553;28;20025;-58
2024/01/11 08:34:15;;;;;;;25.93;18.10;;;;;;;;;;5053516;28;20051;-55
2024/01/11 08:36:42;;;;;;;27.40;19.47;;;;;;;;;;5053343;28;20037;-56
2024/01/11 08:39:11;;;;;;;26.57;19.17;;;;;;;;;;5052176;28;20025;-57
2024/01/11 08:41:37;;;;;;;27.43;18.57;;;;;;;;;;5048672;28;20025;-61
2024/01/11 08:44:05;;;;;;;27.47;18.83;;;;;;;;;;5048864;28;20121;-65
2024/01/11 08:46:33;;;;;;;28.57;18.77;;;;;;;;;;5052894;28;20478;-64
2024/01/11 08:48:59;;;;;;;28.33;19.67;;;;;;;;;;5050885;28;20170;-64
2024/01/11 08:51:26;;;;;;;27.13;19.10;;;;;;;;;;5052787;28;20037;-69
2024/01/11 08:53:55;;;;;;;27.13;18.80;;;;;;;;;;5052257;28;20029;-68
2024/01/11 08:56:21;;;;;;;28.93;19.13;;;;;;;;;;5054779;28;20036;-64
2024/01/11 08:58:48;;;;;;;27.70;19.77;;;;;;;;;;5048161;28;20059;-61
2024/01/11 09:01:14;;;;;;;30.07;18.33;;;;;;;;;;5051348;28;20032;-64
2024/01/11 09:03:40;;;;;;;25.27;18.40;;;;;;;;;;5051528;28;20112;-66
2024/01/11 09:06:06;;;;;;;33.67;18.83;;;;;;;;;;5052505;28;20100;-63
2024/01/11 09:08:32;;;;;;;29.37;18.73;;;;;;;;;;5052720;28;20087;-61
2024/01/11 09:10:59;;;;;;;30.50;18.80;;;;;;;;;;5053007;28;20082;-62
2024/01/11 09:13:28;;;;;;;26.63;18.97;;;;;;;;;;5052770;28;20264;-63
2024/01/11 09:15:54;;;;;;;27.30;18.77;;;;;;;;;;5052435;28;20131;-61
2024/01/11 09:18:20;;;;;;;30.30;18.73;;;;;;;;;;5052866;28;20037;-61
2024/01/11 09:20:47;;;;;;;28.53;19.17;;;;;;;;;;5053306;28;20025;-63
2024/01/11 09:23:13;;;;;;;26.20;17.07;;;;;;;;;;5052739;28;20025;-61
2024/01/11 09:25:48;;;;;;;26.37;17.67;;;;;;;;;;5053303;28;20032;-56
2024/01/11 09:28:14;;;;;;;23.43;17.10;;;;;;;;;;5052415;28;20048;-62
2024/01/11 09:30:40;;;;;;;21.17;15.20;;;;;;;;;;5051381;28;20063;-62
2024/01/11 09:33:06;;;;;;;23.73;16.57;;;;;;;;;;5050548;28;20063;-69
2024/01/11 09:35:32;;;;;;;24.87;16.37;;;;;;;;;;5053505;28;20025;-66
2024/01/11 09:37:58;;;;;;;24.87;15.97;;;;;;;;;;5052161;28;20051;-67
2024/01/11 09:40:24;;;;;;;20.63;15.07;;;;;;;;;;5050530;28;20025;-66
2024/01/11 09:42:50;;;;;;;26.07;17.57;;;;;;;;;;5052236;28;20051;-53
2024/01/11 09:45:17;;;;;;;23.33;16.90;;;;;;;;;;5052310;28;20041;-58
2024/01/11 09:47:45;;;;;;;27.23;17.03;;;;;;;;;;5052095;28;20393;-69
2024/01/11 09:50:17;;;;;;;25.00;16.53;;;;;;;;;;5050281;28;20025;-63
2024/01/11 09:52:47;;;;;;;27.13;16.97;;;;;;;;;;5050966;28;20092;-66
2024/01/11 09:55:13;;;;;;;25.87;16.07;;;;;;;;;;5051184;28;20071;-64
2024/01/11 09:57:42;;;;;;;26.67;17.37;;;;;;;;;;5049861;28;20037;-64
2024/01/11 10:00:09;;;;;;;27.00;16.93;;;;;;;;;;5051963;28;20075;-60
2024/01/11 10:02:35;;;;;;;25.03;17.60;;;;;;;;;;5051608;28;20120;-67
2024/01/11 10:05:01;;;;;;;28.67;17.17;;;;;;;;;;5051311;28;20027;-75
2024/01/11 10:07:29;;;;;;;28.43;18.03;;;;;;;;;;5051455;28;20435;-66
2024/01/11 10:09:55;;;;;;;27.97;18.90;;;;;;;;;;5050221;28;20025;-68
2024/01/11 10:12:24;;;;;;;30.53;18.97;;;;;;;;;;5051411;28;20112;-62
2024/01/11 10:14:51;;;;;;;27.97;19.37;;;;;;;;;;5051125;28;20455;-74
2024/01/11 10:17:17;;;;;;;26.37;17.93;;;;;;;;;;5051329;28;20049;-67
2024/01/11 10:19:45;;;;;;;27.70;18.53;;;;;;;;;;5051861;28;20627;-63
2024/01/11 10:22:16;;;;;;;30.10;18.97;;;;;;;;;;5050510;28;20050;-65
2024/01/11 10:24:42;;;;;;;31.70;20.13;;;;;;;;;;5049843;28;20032;-63
2024/01/11 10:27:12;;;;;;;29.17;18.83;;;;;;;;;;5036026;28;20446;-65
2024/01/11 10:29:41;;;;;;;33.10;20.70;;;;;;;;;;5044733;28;20108;-66
2024/01/11 10:32:07;;;;;;;29.73;19.57;;;;;;;;;;5049434;28;20037;-59
2024/01/11 10:34:33;;;;;;;30.07;20.07;;;;;;;;;;5049479;28;20025;-59
2024/01/11 10:37:00;;;;;;;27.00;20.13;;;;;;;;;;5051291;28;20041;-60
2024/01/11 10:39:26;;;;;;;28.57;19.97;;;;;;;;;;5050108;28;20036;-61
2024/01/11 10:42:26;;;;;;;27.13;18.80;;;;;;;;;;5050219;28;20033;-67
2024/01/11 10:44:58;;;;;;;30.17;20.97;;;;;;;;;;5044937;28;20438;-65
2024/01/11 10:47:25;;;;;;;29.93;20.10;;;;;;;;;;5051110;28;20032;-65
2024/01/11 10:49:53;;;;;;;28.37;19.50;;;;;;;;;;5047025;28;20455;-67
2024/01/11 10:52:21;;;;;;;29.53;19.63;;;;;;;;;;5042284;28;20052;-69
2024/01/11 10:54:48;;;;;;;28.23;20.77;;;;;;;;;;5051294;28;20029;-68
2024/01/11 10:57:14;;;;;;;26.73;19.60;;;;;;;;;;5038179;28;20029;-77
2024/01/11 10:59:41;;;;;;;28.40;20.03;;;;;;;;;;5039781;28;20021;-66
2024/01/11 11:02:10;;;;;;;29.70;20.30;;;;;;;;;;5049534;28;20036;-64
2024/01/11 11:04:37;;;;;;;28.23;20.57;;;;;;;;;;5047887;28;20124;-61
2024/01/11 11:07:07;;;;;;;29.07;20.23;;;;;;;;;;5051580;28;20082;-71
2024/01/11 11:09:37;;;;;;;30.83;20.57;;;;;;;;;;5051028;28;20032;-67
2024/01/11 11:12:05;;;;;;;30.87;20.50;;;;;;;;;;5051515;28;20036;-59
2024/01/11 11:14:32;;;;;;;30.87;20.27;;;;;;;;;;5051190;28;20025;-61
2024/01/11 11:16:58;;;;;;;30.07;20.27;;;;;;;;;;5050878;28;20051;-57
2024/01/11 11:19:25;;;;;;;32.23;19.90;;;;;;;;;;5050958;28;20033;-59
2024/01/11 11:21:51;;;;;;;31.40;20.20;;;;;;;;;;5049170;28;20025;-64
2024/01/11 11:24:18;;;;;;;29.67;20.23;;;;;;;;;;5041383;28;20022;-74
2024/01/11 11:26:44;;;;;;;30.50;20.93;;;;;;;;;;5054800;28;20025;-74
2024/01/11 11:29:10;;;;;;;26.60;19.33;;;;;;;;;;5055225;28;20052;-74
2024/01/11 11:31:36;;;;;;;29.87;20.30;;;;;;;;;;5055369;28;20028;-74
2024/01/11 11:40:13;;;;;;;31.43;20.23;;;;;;;;;;5045754;28;20478;-73
2024/01/11 11:42:40;;;;;;;26.73;19.30;;;;;;;;;;5034849;28;20025;-73
2024/01/11 11:45:11;;;;;;;28.53;19.80;;;;;;;;;;5052764;28;20033;-74
2024/01/11 11:47:38;;;;;;;29.73;19.80;;;;;;;;;;5053107;28;20394;-74
2024/01/11 11:50:04;;;;;;;30.80;19.80;;;;;;;;;;5054767;28;20024;-74
2024/01/11 11:52:33;;;;;;;27.57;19.30;;;;;;;;;;5040285;28;20013;-73
2024/01/11 11:55:00;;;;;;;28.53;19.43;;;;;;;;;;5053075;28;20486;-74
2024/01/11 11:57:30;;;;;;;30.23;20.23;;;;;;;;;;5054360;28;20116;-74
2024/01/11 11:59:59;;;;;;;28.83;19.03;;;;;;;;;;5054666;28;20033;-74
2024/01/11 12:02:26;;;;;;;29.10;19.10;;;;;;;;;;5054739;28;20033;-73
2024/01/11 12:04:52;;;;;;;27.60;19.13;;;;;;;;;;5054383;28;20032;-74
2024/01/11 12:07:18;;;;;;;28.80;19.90;;;;;;;;;;5042193;28;20069;-73
2024/01/11 12:09:44;;;;;;;28.10;19.53;;;;;;;;;;5054527;28;20017;-74
2024/01/11 12:12:10;;;;;;;32.00;20.70;;;;;;;;;;5053817;28;20051;-74
2024/01/11 12:14:37;;;;;;;30.47;21.23;;;;;;;;;;5054099;28;20070;-74
2024/01/11 12:17:03;;;;;;;28.70;19.63;;;;;;;;;;5042702;28;20049;-74
2024/01/11 12:19:29;;;;;;;28.97;19.37;;;;;;;;;;5048233;28;20515;-74
2024/01/11 12:21:55;;;;;;;28.93;19.77;;;;;;;;;;5048942;28;20033;-74
2024/01/11 12:24:24;;;;;;;27.00;19.10;;;;;;;;;;5047694;28;20080;-74
2024/01/11 12:26:50;;;;;;;26.57;19.53;;;;;;;;;;5048858;28;20068;-74
2024/01/11 12:29:21;;;;;;;28.60;19.47;;;;;;;;;;5049805;28;20021;-74
2024/01/11 12:31:47;;;;;;;32.73;19.77;;;;;;;;;;5045942;28;20027;-73
2024/01/11 12:34:14;;;;;;;27.57;20.13;;;;;;;;;;5039544;28;20419;-75
2024/01/11 12:36:40;;;;;;;33.27;19.57;;;;;;;;;;5053544;28;20426;-74
2024/01/11 12:39:06;;;;;;;27.17;19.80;;;;;;;;;;5053703;28;20035;-74
2024/01/11 12:41:33;;;;;;;31.73;20.07;;;;;;;;;;5053711;28;20410;-74
2024/01/11 12:43:59;;;;;;;26.93;19.47;;;;;;;;;;5053577;28;20486;-75
2024/01/11 12:46:28;;;;;;;25.73;19.23;;;;;;;;;;5052613;28;20032;-74
2024/01/11 12:48:54;;;;;;;28.97;20.23;;;;;;;;;;5053309;28;20100;-74
2024/01/11 12:51:21;;;;;;;26.40;19.27;;;;;;;;;;5053176;28;20086;-74
2024/01/11 12:53:51;;;;;;;29.87;18.73;;;;;;;;;;5053340;28;20082;-74
2024/01/11 12:56:18;;;;;;;27.27;19.33;;;;;;;;;;5053661;28;20068;-75
2024/01/11 12:58:46;;;;;;;27.43;19.67;;;;;;;;;;5051766;28;20128;-74
2024/01/11 13:01:13;;;;;;;27.37;18.73;;;;;;;;;;5053369;28;20021;-74
2024/01/11 13:03:40;;;;;;;26.53;18.13;;;;;;;;;;5051889;28;20101;-74
2024/01/11 13:06:06;;;;;;;25.77;17.80;;;;;;;;;;5053472;28;20032;-74
2024/01/11 13:08:34;;;;;;;25.47;17.70;;;;;;;;;;5053022;28;20024;-74
2024/01/11 13:11:01;;;;;;;25.30;18.07;;;;;;;;;;5046858;28;20026;-74
2024/01/11 13:13:28;;;;;;;26.47;18.43;;;;;;;;;;5036006;28;20021;-67
2024/01/11 13:15:58;;;;;;;26.47;18.00;;;;;;;;;;5050785;28;20438;-69
2024/01/11 13:18:24;;;;;;;27.17;18.90;;;;;;;;;;5049571;28;20036;-70
2024/01/11 13:20:50;;;;;;;24.47;18.00;;;;;;;;;;5040076;28;20028;-70
2024/01/11 13:23:20;;;;;;;24.67;16.90;;;;;;;;;;5043259;28;20056;-70
2024/01/11 13:25:47;;;;;;;28.40;18.70;;;;;;;;;;5047141;28;20108;-69
2024/01/11 13:28:13;;;;;;;24.43;17.83;;;;;;;;;;5052727;28;20112;-61
2024/01/11 13:30:40;;;;;;;27.60;18.60;;;;;;;;;;5052362;28;20028;-60
2024/01/11 13:33:07;;;;;;;26.43;17.73;;;;;;;;;;5052233;28;20029;-58
2024/01/11 13:35:33;;;;;;;24.00;17.53;;;;;;;;;;5052107;28;20036;-60
2024/01/11 13:38:00;;;;;;;29.10;19.03;;;;;;;;;;5044049;28;20124;-70
2024/01/11 13:40:28;;;;;;;25.23;19.10;;;;;;;;;;5051752;28;20569;-65
2024/01/11 13:42:55;;;;;;;27.20;18.77;;;;;;;;;;5049802;28;20098;-63
2024/01/11 13:45:21;;;;;;;28.20;18.17;;;;;;;;;;5050287;28;20347;-61
2024/01/11 13:47:47;;;;;;;21.53;16.23;;;;;;;;;;5049894;28;20029;-60
2024/01/11 13:50:14;;;;;;;24.77;17.87;;;;;;;;;;5050114;28;20017;-63
2024/01/11 13:52:41;;;;;;;29.43;18.97;;;;;;;;;;5050220;28;20447;-67
2024/01/11 13:55:09;;;;;;;27.13;18.17;;;;;;;;;;5050248;28;20108;-66
2024/01/11 13:57:36;;;;;;;24.90;17.37;;;;;;;;;;5050212;28;20360;-60
2024/01/11 14:00:03;;;;;;;23.20;17.30;;;;;;;;;;5050567;28;20027;-61
2024/01/11 14:02:29;;;;;;;27.07;17.63;;;;;;;;;;5050532;28;20037;-61
2024/01/11 14:04:55;;;;;;;25.50;17.27;;;;;;;;;;5050658;28;20021;-67
2024/01/11 14:07:21;;;;;;;26.97;18.83;;;;;;;;;;5049990;28;20585;-70
2024/01/11 14:09:47;;;;;;;26.40;17.97;;;;;;;;;;5050378;28;20024;-65
2024/01/11 14:12:15;;;;;;;23.00;17.07;;;;;;;;;;5049861;28;20021;-66
2024/01/11 14:14:41;;;;;;;23.80;16.47;;;;;;;;;;5049986;28;20031;-69
2024/01/11 14:17:07;;;;;;;29.37;18.37;;;;;;;;;;5048884;28;20056;-64
2024/01/11 14:19:33;;;;;;;24.60;17.53;;;;;;;;;;5050607;28;20457;-53
2024/01/11 14:21:59;;;;;;;22.73;16.90;;;;;;;;;;5048938;28;20112;-55
2024/01/11 14:24:25;;;;;;;25.23;16.83;;;;;;;;;;5049144;28;20028;-60